Time;durP1;ratioP1;P1;durP2;ratioP2;P2;SDS_P1;SDS_P2;PMS_P1;PMS_P2;Temp;Humidity;BMP_temperature;BMP_pressure;BME280_temperature;BME280_humidity;BME280_pressure;Samples;Min_cycle;Max_cycle;Signal;HPM_P1;HPM_P2
2022/03/05 00:01:49;;;;;;;24.07;10.83;;;;;;;-142.75;100.00;79004.06;5051052;28;20444;-69
2022/03/05 00:04:15;;;;;;;22.42;11.38;;;;;;;-142.75;100.00;79006.03;5050878;28;20033;-69
2022/03/05 00:06:41;;;;;;;22.50;10.50;;;;;;;-142.75;100.00;79009.97;5051016;28;20029;-70
2022/03/05 00:09:06;;;;;;;22.58;11.07;;;;;;;-142.75;100.00;79009.97;5029129;28;20391;-70
2022/03/05 00:11:31;;;;;;;21.87;9.93;;;;;;;-142.75;100.00;79015.88;5029551;28;20024;-69
2022/03/05 00:13:57;;;;;;;20.75;9.77;;;;;;;-142.75;100.00;79025.72;5049697;28;20040;-70
2022/03/05 00:16:22;;;;;;;23.70;11.10;;;;;;;-142.75;100.00;79031.66;5049221;28;20021;-69
2022/03/05 00:18:49;;;;;;;21.08;9.75;;;;;;;-142.75;100.00;79041.50;5050258;28;20104;-69
2022/03/05 00:21:14;;;;;;;22.13;9.67;;;;;;;-142.75;100.00;79039.53;5050711;28;20025;-69
2022/03/05 00:23:39;;;;;;;20.60;10.23;;;;;;;-142.75;100.00;79035.59;5049303;28;20023;-69
2022/03/05 00:26:05;;;;;;;22.50;10.77;;;;;;;-142.75;100.00;79027.69;5050613;28;20021;-70
2022/03/05 00:28:30;;;;;;;22.10;10.43;;;;;;;-142.75;100.00;79037.56;5048855;28;20263;-70
2022/03/05 00:30:58;;;;;;;25.10;11.00;;;;;;;-142.75;100.00;79045.44;5049096;28;20032;-70
2022/03/05 00:33:24;;;;;;;25.40;11.53;;;;;;;-142.75;100.00;79041.50;5050325;28;20061;-70
2022/03/05 00:35:49;;;;;;;22.17;10.10;;;;;;;-142.75;100.00;79031.66;5050020;28;20112;-70
2022/03/05 00:38:14;;;;;;;22.83;10.83;;;;;;;-142.75;100.00;79037.56;5048454;28;20021;-70
2022/03/05 00:40:41;;;;;;;24.40;11.80;;;;;;;-142.75;100.00;79039.53;5050141;28;20267;-69
2022/03/05 00:43:07;;;;;;;25.97;11.37;;;;;;;-142.75;100.00;79045.44;5048841;28;20467;-69
2022/03/05 00:45:32;;;;;;;23.08;10.55;;;;;;;-142.75;100.00;79049.38;5048874;28;20029;-69
2022/03/05 00:47:57;;;;;;;29.08;12.30;;;;;;;-142.75;100.00;79067.09;5048608;28;20471;-69
2022/03/05 00:50:23;;;;;;;22.77;10.50;;;;;;;-142.75;100.00;79074.97;5048481;28;20020;-69
2022/03/05 00:52:48;;;;;;;27.52;12.00;;;;;;;-142.75;100.00;79096.66;5050452;28;20345;-70
2022/03/05 00:55:13;;;;;;;25.92;12.93;;;;;;;-142.75;100.00;79098.63;5048634;28;20031;-69
2022/03/05 00:57:39;;;;;;;25.58;12.10;;;;;;;-142.75;100.00;79096.66;5041450;28;20083;-69
2022/03/05 01:00:05;;;;;;;27.05;12.57;;;;;;;-142.75;100.00;79082.84;5047704;28;20402;-69
2022/03/05 01:02:31;;;;;;;27.50;12.57;;;;;;;-142.75;100.00;79084.81;5028878;28;20425;-69
2022/03/05 01:04:56;;;;;;;26.77;12.10;;;;;;;-142.75;100.00;79082.84;5029031;28;20124;-69
2022/03/05 01:07:22;;;;;;;27.35;13.65;;;;;;;-142.75;100.00;79086.78;5028268;28;20032;-68
2022/03/05 01:09:47;;;;;;;27.08;12.82;;;;;;;-142.75;100.00;79092.69;5028162;28;20037;-69
2022/03/05 01:12:12;;;;;;;27.58;13.07;;;;;;;-142.75;100.00;79098.63;5048810;28;20040;-70
2022/03/05 01:14:38;;;;;;;30.33;13.20;;;;;;;-142.75;100.00;79100.59;5048575;28;22031;-71
2022/03/05 01:17:03;;;;;;;30.15;14.05;;;;;;;-142.75;100.00;79102.56;5049838;28;20033;-70
2022/03/05 01:19:29;;;;;;;29.25;13.18;;;;;;;-142.75;100.00;79112.41;5048334;28;20025;-70
2022/03/05 01:21:54;;;;;;;30.35;13.05;;;;;;;-142.75;100.00;79118.31;5049102;28;20406;-70
2022/03/05 01:24:19;;;;;;;31.53;14.13;;;;;;;-142.75;100.00;79124.22;5049824;28;20035;-70
2022/03/05 01:26:45;;;;;;;26.77;13.10;;;;;;;-142.75;100.00;79124.22;5049612;28;20283;-70
2022/03/05 01:29:10;;;;;;;28.55;13.35;;;;;;;-142.75;100.00;79128.16;5049410;28;20047;-70
2022/03/05 01:31:36;;;;;;;29.30;13.93;;;;;;;-142.75;100.00;79136.03;5048104;28;20025;-70
2022/03/05 01:34:01;;;;;;;29.10;14.02;;;;;;;-142.75;100.00;79130.13;5049528;28;20374;-70
2022/03/05 01:36:26;;;;;;;29.40;13.88;;;;;;;-142.75;100.00;79130.13;5049433;28;20032;-71
2022/03/05 01:38:52;;;;;;;27.48;13.20;;;;;;;-142.75;100.00;79145.88;5048206;28;20033;-71
2022/03/05 01:41:17;;;;;;;25.35;11.75;;;;;;;-142.75;100.00;79149.81;5049513;28;20029;-70
2022/03/05 01:43:48;;;;;;;28.73;13.30;;;;;;;-142.75;100.00;79151.78;5049663;28;20099;-70
2022/03/05 01:46:14;;;;;;;30.37;13.50;;;;;;;-142.75;100.00;79163.63;5048227;28;20025;-70
2022/03/05 01:48:39;;;;;;;31.45;14.32;;;;;;;-142.75;100.00;79201.03;5047700;28;20025;-70
2022/03/05 01:51:05;;;;;;;34.40;13.85;;;;;;;-142.75;100.00;79201.03;5049855;28;20029;-70
2022/03/05 01:53:30;;;;;;;33.67;14.73;;;;;;;-142.75;100.00;79195.13;5048632;28;20037;-70
2022/03/05 01:55:55;;;;;;;30.83;13.30;;;;;;;-142.75;100.00;79232.56;5047914;28;20271;-70
2022/03/05 01:58:21;;;;;;;28.10;12.68;;;;;;;-142.75;100.00;79240.44;5047949;28;20299;-70
2022/03/05 02:00:46;;;;;;;28.92;13.80;;;;;;;-142.75;100.00;79248.31;5049246;28;20486;-70
2022/03/05 02:03:11;;;;;;;34.45;14.68;;;;;;;-142.75;100.00;79256.19;5029436;28;20029;-70
2022/03/05 02:05:37;;;;;;;29.85;13.88;;;;;;;-142.75;100.00;79268.00;5048552;28;20025;-71
2022/03/05 02:08:04;;;;;;;31.45;13.60;;;;;;;-142.75;100.00;79279.84;5043128;28;20041;-70
2022/03/05 02:10:29;;;;;;;30.37;13.77;;;;;;;-142.75;100.00;79275.88;5049738;28;20025;-70
2022/03/05 02:12:55;;;;;;;34.38;14.45;;;;;;;-142.75;100.00;79295.59;5051500;28;20025;-70
2022/03/05 02:15:20;;;;;;;30.65;13.65;;;;;;;-142.75;100.00;79305.44;5051575;28;20495;-70
2022/03/05 02:17:45;;;;;;;32.63;14.90;;;;;;;-142.75;100.00;79289.69;5052898;28;20394;-69
2022/03/05 02:20:11;;;;;;;35.03;14.97;;;;;;;-142.75;100.00;79293.63;5051024;28;20267;-70
2022/03/05 02:22:36;;;;;;;33.33;14.63;;;;;;;-142.75;100.00;79277.88;5053390;28;20306;-70
2022/03/05 02:25:03;;;;;;;40.35;15.63;;;;;;;-142.75;100.00;79273.91;5052764;28;20070;-70
2022/03/05 02:27:29;;;;;;;33.13;14.30;;;;;;;-142.75;100.00;79273.91;5052625;28;20116;-70
2022/03/05 02:29:55;;;;;;;35.80;14.93;;;;;;;-142.75;100.00;79256.19;5043193;28;20037;-70
2022/03/05 02:32:21;;;;;;;36.25;14.35;;;;;;;-142.75;100.00;79256.19;5052202;28;20028;-70
2022/03/05 02:34:46;;;;;;;32.08;14.75;;;;;;;-142.75;100.00;79258.16;5031861;28;20025;-70
2022/03/05 02:37:13;;;;;;;35.27;15.90;;;;;;;-142.75;100.00;79250.28;5051556;28;20020;-70
2022/03/05 02:39:39;;;;;;;33.13;15.77;;;;;;;-142.75;100.00;79246.34;5051050;28;20414;-70
2022/03/05 02:42:04;;;;;;;32.78;14.98;;;;;;;-142.75;100.00;79258.16;5046543;28;20039;-70
2022/03/05 02:44:30;;;;;;;32.08;14.15;;;;;;;-142.75;100.00;79260.13;5050250;28;20024;-70
2022/03/05 02:46:56;;;;;;;33.40;15.20;;;;;;;-142.75;100.00;79273.91;5052395;28;20067;-70
2022/03/05 02:49:21;;;;;;;41.03;15.68;;;;;;;-142.75;100.00;79271.94;5050953;28;20501;-69
2022/03/05 02:51:47;;;;;;;35.03;15.25;;;;;;;-142.75;100.00;79275.88;5052700;28;20060;-70
2022/03/05 02:54:12;;;;;;;36.10;15.07;;;;;;;-142.75;100.00;79275.88;5052067;28;20107;-70
2022/03/05 02:56:37;;;;;;;35.65;15.68;;;;;;;-142.75;100.00;79275.88;5052172;28;20043;-70
2022/03/05 02:59:02;;;;;;;33.92;13.95;;;;;;;-142.75;100.00;79283.78;5048121;28;20025;-70
2022/03/05 03:01:28;;;;;;;29.23;14.48;;;;;;;-142.75;100.00;79287.72;5053008;28;20029;-70
2022/03/05 03:03:53;;;;;;;33.85;14.07;;;;;;;-142.75;100.00;79281.81;5050797;28;20029;-70
2022/03/05 03:06:18;;;;;;;36.63;15.53;;;;;;;-142.75;100.00;79285.75;5051954;28;20066;-70
2022/03/05 03:08:44;;;;;;;35.92;16.25;;;;;;;-142.75;100.00;79273.91;5050905;28;20287;-69
2022/03/05 03:11:09;;;;;;;32.70;14.38;;;;;;;-142.75;100.00;79287.72;5051936;28;20020;-70
2022/03/05 03:13:34;;;;;;;36.20;15.48;;;;;;;-142.75;100.00;79279.84;5051643;28;20059;-70
2022/03/05 03:16:00;;;;;;;37.95;15.90;;;;;;;-142.75;100.00;79279.84;5051778;28;20025;-70
2022/03/05 03:18:25;;;;;;;34.30;14.50;;;;;;;-142.75;100.00;79279.84;5051442;28;20028;-69
2022/03/05 03:20:51;;;;;;;30.33;13.30;;;;;;;-142.75;100.00;79275.88;5051388;28;20425;-70
2022/03/05 03:23:16;;;;;;;33.22;14.55;;;;;;;-142.75;100.00;79277.88;5051395;28;20028;-70
2022/03/05 03:25:41;;;;;;;34.97;15.20;;;;;;;-142.75;100.00;79277.88;5051337;28;20483;-70
2022/03/05 03:28:07;;;;;;;36.27;14.43;;;;;;;-142.75;100.00;79285.75;5051481;28;20275;-70
2022/03/05 03:30:33;;;;;;;36.72;15.40;;;;;;;-142.75;100.00;79283.78;5050328;28;20479;-70
2022/03/05 03:33:00;;;;;;;28.45;13.52;;;;;;;-142.75;100.00;79291.66;5051356;28;20521;-70
2022/03/05 03:35:25;;;;;;;;;;;;;;;-142.75;100.00;79299.53;5050383;28;20025;-70
2022/03/05 03:37:51;;;;;;;31.47;13.87;;;;;;;-142.75;100.00;79313.31;5049809;28;19917;-68
2022/03/05 03:40:18;;;;;;;35.33;14.95;;;;;;;-142.75;100.00;79309.38;5051273;28;20025;-70
2022/03/05 03:42:45;;;;;;;34.03;14.83;;;;;;;-142.75;100.00;79319.22;5049995;28;20091;-70
2022/03/05 03:45:12;;;;;;;35.50;13.70;;;;;;;-142.75;100.00;79311.34;5051070;28;20506;-70
2022/03/05 03:47:40;;;;;;;34.73;13.93;;;;;;;-142.75;100.00;79323.16;5048322;28;20029;-70
2022/03/05 03:50:07;;;;;;;33.50;14.43;;;;;;;-142.75;100.00;79323.16;5050761;28;20025;-70
2022/03/05 03:52:33;;;;;;;35.77;15.93;;;;;;;-142.75;100.00;79331.03;5051406;28;20023;-70
2022/03/05 03:54:58;;;;;;;33.75;14.82;;;;;;;-142.75;100.00;79331.03;5049569;28;20028;-70
2022/03/05 03:57:23;;;;;;;34.47;15.07;;;;;;;-142.75;100.00;79331.03;5049547;28;20475;-70
2022/03/05 03:59:51;;;;;;;35.90;15.37;;;;;;;-142.75;100.00;79331.03;5049135;28;20083;-69
2022/03/05 04:02:20;;;;;;;37.70;16.03;;;;;;;-142.75;100.00;79338.94;5049428;28;20279;-70
2022/03/05 04:04:46;;;;;;;34.63;15.67;;;;;;;-142.75;100.00;79327.09;5050964;28;20545;-69
2022/03/05 04:09:55;;;;;;;32.13;14.23;;;;;;;-142.75;100.00;79346.81;5050543;28;20100;-70
2022/03/05 04:12:22;;;;;;;30.98;12.82;;;;;;;-142.75;100.00;79358.63;5050748;28;20032;-69
2022/03/05 04:14:47;;;;;;;35.85;14.30;;;;;;;-142.75;100.00;79364.53;5049007;28;20023;-70
2022/03/05 04:17:13;;;;;;;32.33;13.57;;;;;;;-142.75;100.00;79356.66;5050622;28;20025;-69
2022/03/05 04:19:38;;;;;;;33.47;13.80;;;;;;;-142.75;100.00;79364.53;5038171;28;20119;-69
2022/03/05 04:22:04;;;;;;;37.58;15.38;;;;;;;-142.75;100.00;79370.44;5042771;22;20041;-67
2022/03/05 04:24:29;;;;;;;34.63;13.98;;;;;;;-142.75;100.00;79366.50;5009219;28;20376;-66
2022/03/05 04:26:55;;;;;;;32.10;14.23;;;;;;;-142.75;100.00;79386.19;5010705;28;20030;-67
2022/03/05 04:29:20;;;;;;;31.95;13.48;;;;;;;-142.75;100.00;79407.88;5010725;28;20040;-67
2022/03/05 04:31:45;;;;;;;34.25;14.18;;;;;;;-142.75;100.00;79417.72;5010497;28;20046;-67
2022/03/05 04:34:10;;;;;;;34.92;14.90;;;;;;;-142.75;100.00;79417.72;5010616;28;20042;-67
2022/03/05 04:36:36;;;;;;;35.53;14.63;;;;;;;-142.75;100.00;79413.78;5010279;28;20497;-66
2022/03/05 04:39:02;;;;;;;35.78;15.27;;;;;;;-142.75;100.00;79425.59;5010492;28;20025;-67
2022/03/05 04:41:27;;;;;;;;;;;;;;;-142.75;100.00;79425.59;5011074;28;20061;-68
2022/03/05 04:43:52;;;;;;;32.87;13.90;;;;;;;-142.75;100.00;79421.66;5010671;28;19975;-67
2022/03/05 04:46:17;;;;;;;32.60;13.73;;;;;;;-142.75;100.00;79409.84;5009121;28;20026;-68
2022/03/05 04:48:43;;;;;;;33.00;13.97;;;;;;;-142.75;100.00;79409.84;5010350;28;20338;-68
2022/03/05 04:51:08;;;;;;;34.88;14.35;;;;;;;-142.75;100.00;79407.88;5010434;28;20287;-67
2022/03/05 04:53:33;;;;;;;37.83;15.38;;;;;;;-142.75;100.00;79411.81;5010950;28;20041;-68
2022/03/05 04:55:59;;;;;;;33.60;14.05;;;;;;;-142.75;100.00;79413.78;5010565;28;20033;-68
2022/03/05 04:58:24;;;;;;;36.75;15.73;;;;;;;-142.75;100.00;79407.88;5010075;28;20029;-68
2022/03/05 05:00:49;;;;;;;35.70;14.40;;;;;;;-142.75;100.00;79401.97;5010393;28;20021;-67
2022/03/05 05:03:15;;;;;;;30.60;14.35;;;;;;;-142.75;100.00;79417.72;5010482;28;20496;-67
2022/03/05 05:05:40;;;;;;;32.83;14.07;;;;;;;-142.75;100.00;79445.28;5010191;28;20052;-66
2022/03/05 05:08:05;;;;;;;31.85;13.90;;;;;;;-142.75;100.00;79463.03;5009505;28;20037;-67
2022/03/05 05:10:30;;;;;;;32.10;14.53;;;;;;;-142.75;100.00;79461.06;5010316;28;20034;-67
2022/03/05 05:12:56;;;;;;;40.15;14.35;;;;;;;-142.75;100.00;79482.72;5010231;28;20383;-67
2022/03/05 05:15:21;;;;;;;31.48;14.43;;;;;;;-142.75;100.00;79463.03;5010235;28;20034;-67
2022/03/05 05:17:47;;;;;;;32.42;13.43;;;;;;;-142.75;100.00;79451.22;5010153;28;20026;-67
2022/03/05 05:20:12;;;;;;;33.95;13.30;;;;;;;-142.75;100.00;79463.03;5010118;28;20075;-67
2022/03/05 05:22:37;;;;;;;33.83;15.07;;;;;;;-142.75;100.00;79474.84;5010772;28;20109;-68
2022/03/05 05:25:03;;;;;;;38.03;15.68;;;;;;;-142.75;100.00;79480.75;5010326;28;20034;-67
2022/03/05 05:27:29;;;;;;;32.30;14.15;;;;;;;-142.75;100.00;79468.94;5010219;28;20075;-67
2022/03/05 05:29:54;;;;;;;30.98;13.45;;;;;;;-142.75;100.00;79470.91;5009940;28;20026;-67
2022/03/05 05:32:20;;;;;;;35.72;15.38;;;;;;;-142.75;100.00;79465.00;5009807;28;20026;-67
2022/03/05 05:34:45;;;;;;;34.80;13.35;;;;;;;-142.75;100.00;79466.97;5010298;28;20029;-67
2022/03/05 05:37:11;;;;;;;32.90;14.05;;;;;;;-142.75;100.00;79476.81;5010098;28;20095;-67
2022/03/05 05:39:36;;;;;;;31.15;13.65;;;;;;;-142.75;100.00;79496.50;5009834;28;20704;-67
2022/03/05 05:42:02;;;;;;;33.42;12.95;;;;;;;-142.75;100.00;79510.31;5009818;28;20072;-67
2022/03/05 05:44:28;;;;;;;32.47;14.02;;;;;;;-142.75;100.00;79512.28;5009631;28;20037;-64
2022/03/05 05:46:53;;;;;;;31.63;13.32;;;;;;;-142.75;100.00;79514.25;5013793;28;20033;-64
2022/03/05 05:49:18;;;;;;;33.13;13.75;;;;;;;-142.75;100.00;79518.19;5013597;28;20030;-67
2022/03/05 05:51:44;;;;;;;34.72;15.05;;;;;;;-142.75;100.00;79524.09;5013982;28;20053;-67
2022/03/05 05:54:09;;;;;;;34.92;14.05;;;;;;;-142.75;100.00;79547.72;5013914;28;20508;-67
2022/03/05 05:56:35;;;;;;;35.33;14.77;;;;;;;-142.75;100.00;79565.47;5013824;28;20022;-68
2022/03/05 05:59:00;;;;;;;39.88;13.93;;;;;;;-142.75;100.00;79559.56;5013124;28;20107;-67
2022/03/05 06:01:25;;;;;;;35.90;14.52;;;;;;;-142.75;100.00;79551.69;5013516;28;20026;-67
2022/03/05 06:03:52;;;;;;;37.45;14.18;;;;;;;-142.75;100.00;79555.63;5013601;28;20109;-67
2022/03/05 06:06:18;;;;;;;34.17;13.83;;;;;;;-142.75;100.00;79539.84;5013039;28;20088;-67
2022/03/05 06:08:43;;;;;;;36.67;14.57;;;;;;;-142.75;100.00;79539.84;5012492;28;20022;-67
2022/03/05 06:11:09;;;;;;;35.65;13.68;;;;;;;-142.75;100.00;79549.69;5011910;28;20025;-67
2022/03/05 06:13:34;;;;;;;34.83;14.48;;;;;;;-142.75;100.00;79543.78;5013296;28;20022;-67
2022/03/05 06:15:59;;;;;;;35.20;14.57;;;;;;;-142.75;100.00;79547.72;5013393;28;20018;-67
2022/03/05 06:18:24;;;;;;;33.83;14.20;;;;;;;-142.75;100.00;79549.69;5012891;28;20037;-67
2022/03/05 06:20:50;;;;;;;37.65;14.32;;;;;;;-142.75;100.00;79541.81;5012717;28;20028;-67
2022/03/05 06:23:17;;;;;;;32.53;13.73;;;;;;;-142.75;100.00;79530.00;5012459;28;20022;-67
2022/03/05 06:25:43;;;;;;;37.87;14.23;;;;;;;-142.75;100.00;79531.97;5012700;28;20040;-67
2022/03/05 06:28:08;;;;;;;37.58;15.10;;;;;;;-142.75;100.00;79528.03;5011518;28;20037;-67
2022/03/05 06:30:33;;;;;;;38.45;14.77;;;;;;;-142.75;100.00;79535.91;5013169;28;20080;-67
2022/03/05 06:32:59;;;;;;;36.78;13.73;;;;;;;-142.75;100.00;79535.91;5012445;28;20052;-67
2022/03/05 06:35:24;;;;;;;37.63;15.68;;;;;;;-142.75;100.00;79537.88;5013087;28;20033;-67
2022/03/05 06:37:49;;;;;;;39.40;15.80;;;;;;;-142.75;100.00;79510.31;5012673;28;20060;-66
2022/03/05 06:40:15;;;;;;;35.85;14.30;;;;;;;-142.75;100.00;79500.47;5012723;28;20029;-67
2022/03/05 06:42:41;;;;;;;33.83;13.40;;;;;;;-142.75;100.00;79492.56;5012823;28;20026;-67
2022/03/05 06:45:08;;;;;;;38.05;15.13;;;;;;;-142.75;100.00;79476.81;5012912;28;20026;-67
2022/03/05 06:47:33;;;;;;;38.57;16.00;;;;;;;-142.75;100.00;79459.09;5012587;28;20048;-67
2022/03/05 06:49:59;;;;;;;36.25;15.02;;;;;;;-142.75;100.00;79445.28;5012411;28;20479;-67
2022/03/05 06:52:24;;;;;;;42.53;15.88;;;;;;;-142.75;100.00;79425.59;5013009;28;20108;-66
2022/03/05 06:54:50;;;;;;;39.10;15.90;;;;;;;-142.75;100.00;79413.78;5012239;28;20076;-67
2022/03/05 06:57:15;;;;;;;38.90;16.15;;;;;;;-142.75;100.00;79394.09;5012403;28;20029;-67
2022/03/05 06:59:40;;;;;;;40.22;15.82;;;;;;;-142.75;100.00;79374.38;5012007;28;20042;-67
2022/03/05 07:02:06;;;;;;;36.15;15.40;;;;;;;-142.75;100.00;79370.44;5012375;28;20088;-67
2022/03/05 07:04:32;;;;;;;40.58;16.58;;;;;;;-142.75;100.00;79362.56;5012348;28;20439;-67
2022/03/05 07:06:57;;;;;;;34.10;15.73;;;;;;;-142.75;100.00;79342.88;5012187;28;20062;-66
2022/03/05 07:09:22;;;;;;;44.58;18.90;;;;;;;-142.75;100.00;79342.88;5012023;28;20484;-67
2022/03/05 07:11:47;;;;;;;38.80;15.98;;;;;;;-142.75;100.00;79331.03;5012068;28;20033;-67
2022/03/05 07:14:13;;;;;;;34.87;15.10;;;;;;;-142.75;100.00;79305.44;5011935;28;20046;-67
2022/03/05 07:16:38;;;;;;;41.57;16.10;;;;;;;-142.75;100.00;79279.84;5010766;28;20782;-67
2022/03/05 07:19:03;;;;;;;38.30;16.67;;;;;;;-142.75;100.00;79281.81;5011915;28;20273;-67
2022/03/05 07:21:30;;;;;;;39.78;16.08;;;;;;;-142.75;100.00;79252.25;5011879;28;20030;-67
2022/03/05 07:23:56;;;;;;;42.10;18.03;;;;;;;-142.75;100.00;79220.75;5012443;28;20121;-67
2022/03/05 07:26:21;;;;;;;42.20;17.88;;;;;;;-142.75;100.00;79232.56;5012027;28;20101;-67
2022/03/05 07:28:47;;;;;;;44.97;17.83;;;;;;;-142.75;100.00;79201.03;5011365;28;20550;-67
2022/03/05 07:31:12;;;;;;;43.25;17.67;;;;;;;-142.75;100.00;79177.41;5011958;28;20076;-67
2022/03/05 07:33:37;;;;;;;38.03;18.00;;;;;;;-142.75;100.00;79153.75;5011473;28;20065;-67
2022/03/05 07:36:04;;;;;;;36.80;16.98;;;;;;;-142.75;100.00;79126.19;5011629;28;20303;-67
2022/03/05 07:38:33;;;;;;;38.53;17.63;;;;;;;-142.75;100.00;79108.47;5011394;28;20569;-67
2022/03/05 07:40:58;;;;;;;40.37;17.40;;;;;;;-142.75;100.00;79086.78;5010147;28;20455;-66
2022/03/05 07:43:24;;;;;;;38.20;17.20;;;;;;;-142.75;100.00;79071.03;5011691;28;20022;-69
2022/03/05 07:45:49;;;;;;;44.25;18.60;;;;;;;-142.75;100.00;79076.94;5011390;28;20483;-68
2022/03/05 07:48:19;;;;;;;41.72;18.33;;;;;;;-142.75;100.00;79063.16;5011248;28;20480;-67
2022/03/05 07:50:45;;;;;;;45.90;18.33;;;;;;;-142.75;100.00;79023.75;5011172;28;20053;-67
2022/03/05 07:53:10;;;;;;;44.42;17.85;;;;;;;-142.75;100.00;78984.38;5010409;28;20080;-68
2022/03/05 07:55:35;;;;;;;39.80;16.80;;;;;;;-142.75;100.00;78980.44;5011372;28;20021;-67
2022/03/05 07:58:01;;;;;;;48.45;17.80;;;;;;;-142.75;100.00;78962.69;5009647;28;20643;-67
2022/03/05 08:00:26;;;;;;;50.20;19.27;;;;;;;-142.75;100.00;78941.03;5010530;28;20546;-67
2022/03/05 08:02:52;;;;;;;37.73;17.73;;;;;;;-142.75;100.00;78941.03;5009211;28;20269;-67
2022/03/05 08:05:18;;;;;;;41.63;18.23;;;;;;;-142.75;100.00;78909.53;5010227;28;20766;-67
2022/03/05 08:07:44;;;;;;;44.22;17.70;;;;;;;-142.75;100.00;78885.88;5009313;28;20059;-68
2022/03/05 08:10:09;;;;;;;46.50;19.10;;;;;;;-142.75;100.00;78866.19;5009706;28;20025;-65
2022/03/05 08:12:35;;;;;;;44.00;18.15;;;;;;;-142.75;100.00;78836.66;5010102;28;20026;-65
2022/03/05 08:15:01;;;;;;;38.45;17.98;;;;;;;-142.75;100.00;78834.69;5009678;28;20029;-65
2022/03/05 08:17:27;;;;;;;;;;;;;;;-142.75;100.00;78803.16;5010129;28;20030;-65
2022/03/05 08:19:52;;;;;;;44.83;18.07;;;;;;;-142.75;100.00;78785.44;5008489;28;19974;-65
2022/03/05 08:22:17;;;;;;;42.63;19.27;;;;;;;-142.75;100.00;78736.19;5010199;28;20042;-65
2022/03/05 08:24:42;;;;;;;47.20;21.57;;;;;;;-142.75;100.00;78692.88;5010253;28;20658;-65
2022/03/05 08:27:08;;;;;;;41.63;18.92;;;;;;;-142.75;100.00;78718.47;5008957;28;20029;-67
2022/03/05 08:29:33;;;;;;;41.15;19.40;;;;;;;-142.75;100.00;78702.72;5008066;28;20117;-65
2022/03/05 08:31:58;;;;;;;49.22;18.85;;;;;;;-142.75;100.00;78673.19;5008182;28;20427;-65
2022/03/05 08:34:24;;;;;;;44.97;19.08;;;;;;;-142.75;100.00;78637.72;5009549;28;20038;-65
2022/03/05 08:36:49;;;;;;;37.60;19.08;;;;;;;-142.75;100.00;78653.47;5009841;28;20818;-64
2022/03/05 08:39:14;;;;;;;41.05;20.23;;;;;;;-142.75;100.00;78580.59;5008000;28;20037;-65
2022/03/05 08:41:40;;;;;;;42.53;20.02;;;;;;;-142.75;100.00;78594.41;5009491;28;20025;-65
2022/03/05 08:44:05;;;;;;;44.20;18.83;;;;;;;-142.75;100.00;78606.22;5010055;28;20029;-65
2022/03/05 08:46:30;;;;;;;40.85;18.98;;;;;;;-142.75;100.00;78606.22;5009286;28;20108;-65
2022/03/05 08:48:56;;;;;;;40.30;18.65;;;;;;;-142.75;100.00;78551.06;5009412;28;20030;-65
2022/03/05 08:51:21;;;;;;;35.72;16.77;;;;;;;-142.75;100.00;78535.31;5009658;28;20388;-65
2022/03/05 08:53:46;;;;;;;42.35;18.52;;;;;;;-142.75;100.00;78566.81;5009964;28;20116;-65
2022/03/05 08:56:12;;;;;;;42.50;19.25;;;;;;;-142.75;100.00;78501.84;5009281;28;20025;-65
2022/03/05 08:58:37;;;;;;;45.55;20.48;;;;;;;-142.75;100.00;78425.03;5009242;28;20728;-65
2022/03/05 09:01:02;;;;;;;45.40;19.83;;;;;;;-142.75;100.00;78513.66;5009286;28;20062;-66
2022/03/05 09:03:28;;;;;;;43.42;20.67;;;;;;;-142.75;100.00;78472.28;5010263;28;20104;-66
2022/03/05 09:05:54;;;;;;;45.65;21.27;;;;;;;-142.75;100.00;78436.84;5010315;28;20029;-65
2022/03/05 09:08:20;;;;;;;42.33;20.77;;;;;;;-142.75;100.00;78425.03;5009175;28;20029;-68
2022/03/05 09:10:46;;;;;;;40.40;19.77;;;;;;;-142.75;100.00;78427.00;5009263;28;20025;-68
2022/03/05 09:13:12;;;;;;;49.75;22.17;;;;;;;-142.75;100.00;78432.91;5009113;28;20133;-68
2022/03/05 09:15:38;;;;;;;42.80;20.70;;;;;;;-142.75;100.00;78440.78;5009124;28;20113;-68
2022/03/05 09:18:04;;;;;;;43.13;20.38;;;;;;;-142.75;100.00;78425.03;5009007;28;20037;-68
2022/03/05 09:20:32;;;;;;;45.80;21.73;;;;;;;-142.75;100.00;78428.97;5010787;28;20120;-68
2022/03/05 09:22:58;;;;;;;47.37;21.53;;;;;;;-142.75;100.00;78395.47;5013838;28;20021;-68
2022/03/05 09:25:24;;;;;;;42.88;19.90;;;;;;;-142.75;100.00;78385.63;5013378;28;20080;-64
2022/03/05 09:27:50;;;;;;;42.85;19.15;;;;;;;-142.75;100.00;78334.44;5011072;28;20043;-66
2022/03/05 09:30:15;;;;;;;43.47;20.38;;;;;;;-142.75;100.00;78310.81;5013358;28;20018;-66
2022/03/05 09:32:41;;;;;;;44.60;20.48;;;;;;;-142.75;100.00;78318.69;5011044;28;20028;-66
2022/03/05 09:35:07;;;;;;;44.33;20.07;;;;;;;-142.75;100.00;78328.53;4999563;28;20038;-66
2022/03/05 09:37:34;;;;;;;41.97;19.77;;;;;;;-142.75;100.00;78342.31;5002656;28;20037;-66
2022/03/05 09:40:01;;;;;;;39.50;18.60;;;;;;;-142.75;100.00;78300.97;5001101;28;20096;-68
2022/03/05 09:42:26;;;;;;;41.20;20.30;;;;;;;-142.75;100.00;78234.00;5000101;28;20455;-68
2022/03/05 09:44:52;;;;;;;41.38;19.90;;;;;;;-142.75;100.00;78224.16;5002795;28;20118;-69
2022/03/05 09:47:19;;;;;;;41.85;20.52;;;;;;;-142.75;100.00;78214.31;5003039;28;20057;-67
2022/03/05 09:49:45;;;;;;;44.63;21.07;;;;;;;-142.75;100.00;78161.13;4998944;28;20041;-66
2022/03/05 09:52:10;;;;;;;44.50;20.15;;;;;;;-142.75;100.00;78220.22;5008946;28;20025;-66
2022/03/05 09:54:36;;;;;;;41.75;19.88;;;;;;;-142.75;100.00;78153.25;5013499;28;20026;-67
2022/03/05 09:57:14;;;;;;;44.90;20.87;;;;;;;-142.75;100.00;78200.53;5006943;28;20030;-66
2022/03/05 09:59:40;;;;;;;44.30;19.73;;;;;;;-142.75;100.00;78194.63;5011542;28;20026;-66
2022/03/05 10:02:06;;;;;;;42.83;20.05;;;;;;;-142.75;100.00;78200.53;5006514;28;20028;-66
2022/03/05 10:04:33;;;;;;;41.37;19.83;;;;;;;-142.75;100.00;78232.03;5000960;28;20030;-66
2022/03/05 10:07:06;;;;;;;44.87;18.97;;;;;;;-142.75;100.00;78216.28;5013034;28;20518;-66
2022/03/05 10:09:31;;;;;;;41.70;19.77;;;;;;;-142.75;100.00;78180.81;5010202;28;20065;-66
2022/03/05 10:11:56;;;;;;;46.13;19.97;;;;;;;-142.75;100.00;78176.88;5001509;28;20068;-66
2022/03/05 10:14:22;;;;;;;42.60;20.43;;;;;;;-142.75;100.00;78141.44;5012068;28;20305;-66
2022/03/05 10:16:47;;;;;;;43.78;20.33;;;;;;;-142.75;100.00;78082.38;5012934;28;20030;-66
2022/03/05 10:19:22;;;;;;;43.97;19.42;;;;;;;-142.75;100.00;78121.75;5012644;28;20082;-66
2022/03/05 10:21:59;;;;;;;41.57;19.60;;;;;;;-142.75;100.00;78161.13;5012578;28;20033;-66
2022/03/05 10:24:36;;;;;;;44.97;20.17;;;;;;;-142.75;100.00;78135.53;5012813;28;20037;-66
2022/03/05 10:27:03;;;;;;;;;;;;;;;-142.75;99.08;78115.84;5011913;28;20026;-67
2022/03/05 10:29:35;;;;;;;41.55;18.50;;;;;;;-142.75;100.00;78157.19;5012082;28;19913;-67
2022/03/05 10:32:03;;;;;;;45.60;21.47;;;;;;;-142.75;100.00;78119.78;5012070;28;20080;-67
2022/03/05 10:34:52;;;;;;;44.17;20.37;;;;;;;-142.75;98.97;78098.13;5012547;28;20032;-67
2022/03/05 10:37:22;;;;;;;43.30;19.73;;;;;;;-142.75;92.29;78056.78;5012479;28;20029;-68
2022/03/05 10:39:49;;;;;;;45.57;20.67;;;;;;;-142.75;91.40;77985.88;5011965;28;20458;-68
2022/03/05 10:42:25;;;;;;;46.03;21.30;;;;;;;-142.75;92.11;77999.66;5012417;28;20105;-68
2022/03/05 10:45:07;;;;;;;43.05;21.05;;;;;;;-142.75;90.46;78007.53;5012221;28;20026;-67
2022/03/05 10:47:37;;;;;;;44.60;20.45;;;;;;;-142.75;92.16;77981.94;5012297;28;20022;-68
2022/03/05 10:50:06;;;;;;;43.30;21.13;;;;;;;-142.75;94.12;77960.28;5012127;28;20028;-68
2022/03/05 10:52:44;;;;;;;43.35;20.52;;;;;;;-142.75;93.73;77968.16;5011959;28;20030;-68